Time;durP1;ratioP1;P1;durP2;ratioP2;P2;SDS_P1;SDS_P2;PMS_P1;PMS_P2;Temp;Humidity;BMP_temperature;BMP_pressure;BME280_temperature;BME280_humidity;BME280_pressure;Samples;Min_cycle;Max_cycle;Signal;HPM_P1;HPM_P2
2023/03/18 00:01:36;;;;;;;20.33;2.42;;;;;;;;;;5086181;28;20059;-74
2023/03/18 00:04:03;;;;;;;20.15;3.47;;;;;;;;;;5076922;28;20553;-74
2023/03/18 00:06:29;;;;;;;13.07;2.72;;;;;;;;;;5084412;28;20028;-74
2023/03/18 00:08:57;;;;;;;20.60;2.88;;;;;;;;;;5090087;28;20024;-74
2023/03/18 00:11:23;;;;;;;15.90;2.75;;;;;;;;;;5076964;28;20028;-74
2023/03/18 00:13:49;;;;;;;23.20;3.08;;;;;;;;;;5077736;28;20078;-74
2023/03/18 00:16:15;;;;;;;24.48;3.05;;;;;;;;;;5083530;28;20515;-74
2023/03/18 00:18:41;;;;;;;16.92;2.95;;;;;;;;;;5078967;28;20020;-74
2023/03/18 00:21:08;;;;;;;15.02;2.78;;;;;;;;;;5084555;28;20487;-73
2023/03/18 00:23:35;;;;;;;12.55;2.50;;;;;;;;;;5082162;28;20062;-73
2023/03/18 00:26:02;;;;;;;16.33;4.65;;;;;;;;;;5090983;28;20016;-73
2023/03/18 00:28:30;;;;;;;15.77;2.55;;;;;;;;;;5079374;28;20028;-73
2023/03/18 00:31:01;;;;;;;21.10;3.40;;;;;;;;;;5083411;28;20110;-73
2023/03/18 00:33:27;;;;;;;29.20;4.35;;;;;;;;;;5072544;28;20036;-73
2023/03/18 00:35:53;;;;;;;14.68;2.88;;;;;;;;;;5086488;28;20063;-73
2023/03/18 00:38:20;;;;;;;13.27;2.35;;;;;;;;;;5083237;28;20031;-73
2023/03/18 00:40:53;;;;;;;11.70;2.63;;;;;;;;;;5091252;28;20062;-73
2023/03/18 00:43:21;;;;;;;17.13;2.85;;;;;;;;;;5092574;28;20689;-73
2023/03/18 00:45:49;;;;;;;10.20;2.38;;;;;;;;;;5080922;28;20013;-73
2023/03/18 00:48:16;;;;;;;16.35;3.67;;;;;;;;;;5086355;28;20403;-73
2023/03/18 00:50:43;;;;;;;14.15;2.10;;;;;;;;;;5086045;28;20030;-73
2023/03/18 00:53:11;;;;;;;16.25;2.22;;;;;;;;;;5062153;28;20036;-73
2023/03/18 00:55:38;;;;;;;12.23;2.00;;;;;;;;;;5082170;28;20446;-73
2023/03/18 00:58:04;;;;;;;16.13;3.25;;;;;;;;;;5088198;28;20032;-73
2023/03/18 01:00:30;;;;;;;12.60;1.95;;;;;;;;;;5085374;28;20044;-73
2023/03/18 01:02:56;;;;;;;7.63;1.80;;;;;;;;;;5086902;28;20119;-73
2023/03/18 01:05:23;;;;;;;10.82;1.80;;;;;;;;;;5085371;28;20510;-73
2023/03/18 01:07:50;;;;;;;10.55;2.17;;;;;;;;;;5089793;28;20365;-73
2023/03/18 01:10:16;;;;;;;17.20;3.47;;;;;;;;;;5080088;28;20620;-73
2023/03/18 01:12:45;;;;;;;9.48;2.00;;;;;;;;;;5089898;28;20024;-73
2023/03/18 01:15:13;;;;;;;11.35;2.45;;;;;;;;;;5078505;28;20020;-73
2023/03/18 01:17:39;;;;;;;9.90;1.63;;;;;;;;;;5090089;28;20023;-73
2023/03/18 01:20:06;;;;;;;9.60;1.70;;;;;;;;;;5090884;28;20032;-73
2023/03/18 01:22:32;;;;;;;6.78;1.33;;;;;;;;;;5078823;28;20497;-73
2023/03/18 01:24:58;;;;;;;4.50;1.35;;;;;;;;;;5080795;28;20111;-73
2023/03/18 01:27:32;;;;;;;7.35;1.13;;;;;;;;;;5089516;28;20046;-73
2023/03/18 01:29:59;;;;;;;5.28;1.42;;;;;;;;;;5080208;28;20466;-73
2023/03/18 01:32:27;;;;;;;7.65;1.30;;;;;;;;;;5082260;28;20051;-73
2023/03/18 01:34:54;;;;;;;6.50;1.13;;;;;;;;;;5083822;28;20029;-73
2023/03/18 01:37:20;;;;;;;5.53;1.33;;;;;;;;;;5087153;28;20053;-73
2023/03/18 01:39:52;;;;;;;7.47;2.28;;;;;;;;;;5081310;28;20047;-73
2023/03/18 01:42:22;;;;;;;5.65;0.85;;;;;;;;;;5085615;28;20028;-73
2023/03/18 01:44:48;;;;;;;7.57;1.10;;;;;;;;;;5086568;28;20032;-74
2023/03/18 01:47:16;;;;;;;4.47;1.20;;;;;;;;;;5086726;28;20540;-74
2023/03/18 01:49:47;;;;;;;9.43;1.27;;;;;;;;;;5080273;28;20147;-74
2023/03/18 01:52:19;;;;;;;8.35;1.90;;;;;;;;;;5089042;28;20069;-74
2023/03/18 01:54:51;;;;;;;6.63;1.15;;;;;;;;;;5088396;28;20502;-74
2023/03/18 01:57:18;;;;;;;6.30;1.50;;;;;;;;;;5077755;28;20467;-74
2023/03/18 01:59:45;;;;;;;3.22;0.82;;;;;;;;;;5067072;28;20023;-74
2023/03/18 02:02:13;;;;;;;4.88;1.10;;;;;;;;;;5085182;28;20030;-74
2023/03/18 02:04:47;;;;;;;5.18;1.02;;;;;;;;;;5104345;28;20032;-74
2023/03/18 02:07:15;;;;;;;5.80;1.17;;;;;;;;;;5085840;28;20028;-74
2023/03/18 02:09:41;;;;;;;4.53;1.42;;;;;;;;;;5086119;28;20107;-74
2023/03/18 02:12:08;;;;;;;7.85;1.15;;;;;;;;;;5104758;28;20024;-74
2023/03/18 02:14:34;;;;;;;7.10;1.90;;;;;;;;;;5080274;28;20037;-74
2023/03/18 02:17:12;;;;;;;4.38;1.17;;;;;;;;;;5092491;28;20115;-74
2023/03/18 02:19:59;;;;;;;7.07;1.33;;;;;;;;;;5094862;28;20032;-74
2023/03/18 02:22:32;;;;;;;3.83;1.13;;;;;;;;;;5091493;28;20035;-74
2023/03/18 02:25:01;;;;;;;8.85;1.00;;;;;;;;;;5092458;28;20472;-74
2023/03/18 02:27:32;;;;;;;8.00;1.67;;;;;;;;;;5093825;28;20024;-74
2023/03/18 02:30:00;;;;;;;5.53;1.10;;;;;;;;;;5092202;28;20495;-74
2023/03/18 02:32:31;;;;;;;11.75;1.83;;;;;;;;;;5080222;28;20021;-74
2023/03/18 02:34:59;;;;;;;5.93;1.92;;;;;;;;;;5089487;28;20033;-74
2023/03/18 02:37:25;;;;;;;6.85;1.40;;;;;;;;;;5103889;28;20124;-74
2023/03/18 02:39:52;;;;;;;8.10;1.33;;;;;;;;;;5092036;28;20135;-74
2023/03/18 02:42:29;;;;;;;5.63;1.23;;;;;;;;;;5075261;28;20066;-74
2023/03/18 02:44:57;;;;;;;4.88;1.60;;;;;;;;;;5081131;28;20028;-74
2023/03/18 02:47:42;;;;;;;9.70;2.85;;;;;;;;;;5091323;28;20458;-74
2023/03/18 02:50:08;;;;;;;4.68;1.40;;;;;;;;;;5091903;28;20491;-74
2023/03/18 02:52:35;;;;;;;6.22;1.63;;;;;;;;;;5090327;28;20031;-74
2023/03/18 02:55:02;;;;;;;5.15;2.05;;;;;;;;;;5091930;28;20032;-74
2023/03/18 02:57:30;;;;;;;7.03;1.67;;;;;;;;;;5084410;28;20032;-74
2023/03/18 02:59:57;;;;;;;4.60;2.08;;;;;;;;;;5084138;28;20127;-74
2023/03/18 03:02:23;;;;;;;10.80;3.67;;;;;;;;;;5090973;28;20039;-74
2023/03/18 03:04:50;;;;;;;5.55;1.30;;;;;;;;;;5091209;28;20027;-74
2023/03/18 03:07:18;;;;;;;7.75;1.58;;;;;;;;;;5080220;28;20070;-74
2023/03/18 03:09:49;;;;;;;7.88;1.83;;;;;;;;;;5093855;28;20398;-74
2023/03/18 03:12:15;;;;;;;4.68;1.80;;;;;;;;;;5083247;28;20032;-74
2023/03/18 03:14:47;;;;;;;7.47;1.55;;;;;;;;;;5091336;28;20020;-74
2023/03/18 03:17:15;;;;;;;3.47;1.30;;;;;;;;;;5091745;28;20024;-74
2023/03/18 03:19:43;;;;;;;7.78;1.50;;;;;;;;;;5074160;28;20052;-74
2023/03/18 03:22:10;;;;;;;2.33;1.00;;;;;;;;;;5092856;28;20115;-74
2023/03/18 03:24:36;;;;;;;4.75;1.25;;;;;;;;;;5074398;28;20081;-74
2023/03/18 03:27:03;;;;;;;5.30;1.10;;;;;;;;;;5091186;28;20514;-74
2023/03/18 03:29:29;;;;;;;3.28;1.20;;;;;;;;;;5089641;28;20562;-74
2023/03/18 03:31:56;;;;;;;2.00;1.10;;;;;;;;;;5084180;28;20116;-74
2023/03/18 03:34:23;;;;;;;3.28;1.52;;;;;;;;;;5079124;28;20103;-74
2023/03/18 03:36:49;;;;;;;5.03;1.00;;;;;;;;;;5090970;28;20038;-74
2023/03/18 03:39:16;;;;;;;2.88;1.10;;;;;;;;;;5059669;28;20032;-74
2023/03/18 03:41:42;;;;;;;1.88;0.85;;;;;;;;;;5077875;28;20044;-74
2023/03/18 03:44:08;;;;;;;2.20;0.85;;;;;;;;;;5077467;28;20047;-74
2023/03/18 03:46:35;;;;;;;5.68;1.13;;;;;;;;;;5084495;28;20114;-74
2023/03/18 03:49:02;;;;;;;4.70;2.00;;;;;;;;;;5072952;28;20052;-74
2023/03/18 03:51:29;;;;;;;4.90;1.08;;;;;;;;;;5086224;28;20024;-74
2023/03/18 03:53:55;;;;;;;8.02;1.30;;;;;;;;;;5083494;28;20059;-74
2023/03/18 03:56:21;;;;;;;1.98;0.80;;;;;;;;;;5079026;28;20116;-74
2023/03/18 03:58:48;;;;;;;3.55;1.10;;;;;;;;;;5074476;28;20085;-74
2023/03/18 04:01:14;;;;;;;1.88;1.02;;;;;;;;;;5084371;28;20404;-74
2023/03/18 04:03:46;;;;;;;3.00;1.17;;;;;;;;;;5071998;28;20607;-74
2023/03/18 04:06:12;;;;;;;1.50;0.68;;;;;;;;;;5073607;28;20493;-74
2023/03/18 04:08:45;;;;;;;7.68;1.45;;;;;;;;;;5062801;28;20031;-74
2023/03/18 04:11:11;;;;;;;4.18;0.93;;;;;;;;;;5084137;28;20040;-74
2023/03/18 04:13:38;;;;;;;4.03;0.70;;;;;;;;;;5072342;28;20032;-74
2023/03/18 04:16:04;;;;;;;2.45;0.93;;;;;;;;;;5078465;28;20442;-74
2023/03/18 04:18:30;;;;;;;3.95;1.00;;;;;;;;;;5084253;28;20050;-74
2023/03/18 04:20:56;;;;;;;2.90;1.00;;;;;;;;;;5087949;28;20469;-74
2023/03/18 04:23:36;;;;;;;1.98;1.00;;;;;;;;;;5074696;28;20500;-74
2023/03/18 04:26:04;;;;;;;3.42;0.95;;;;;;;;;;5082280;28;20024;-74
2023/03/18 04:28:30;;;;;;;2.72;0.90;;;;;;;;;;5083342;28;20024;-74
2023/03/18 04:30:57;;;;;;;2.15;0.77;;;;;;;;;;5077359;28;20031;-74
2023/03/18 04:33:23;;;;;;;3.88;0.80;;;;;;;;;;5077690;28;20025;-74
2023/03/18 04:35:49;;;;;;;4.10;1.35;;;;;;;;;;5088237;28;20035;-74
2023/03/18 04:38:18;;;;;;;1.92;0.70;;;;;;;;;;5081261;28;20031;-74
2023/03/18 04:40:45;;;;;;;2.83;1.13;;;;;;;;;;5082031;28;20051;-74
2023/03/18 04:43:11;;;;;;;3.05;1.00;;;;;;;;;;5083487;28;20388;-74
2023/03/18 04:45:38;;;;;;;4.18;1.00;;;;;;;;;;5084117;28;20476;-74
2023/03/18 04:48:05;;;;;;;1.55;0.88;;;;;;;;;;5075459;28;20031;-74
2023/03/18 04:50:36;;;;;;;3.22;0.90;;;;;;;;;;5085042;28;20028;-74
2023/03/18 04:53:04;;;;;;;4.45;1.10;;;;;;;;;;5086551;28;20137;-74
2023/03/18 04:55:32;;;;;;;2.00;0.90;;;;;;;;;;5074555;28;20511;-74
2023/03/18 04:58:02;;;;;;;6.50;1.30;;;;;;;;;;5079219;28;20026;-74
2023/03/18 05:00:32;;;;;;;3.15;1.17;;;;;;;;;;5081898;28;20028;-74
2023/03/18 05:03:12;;;;;;;3.65;1.15;;;;;;;;;;5086822;28;20039;-74
2023/03/18 05:05:38;;;;;;;3.85;1.48;;;;;;;;;;5077287;28;20024;-74
2023/03/18 05:08:06;;;;;;;2.10;0.77;;;;;;;;;;5088009;28;20017;-74
2023/03/18 05:10:34;;;;;;;4.30;1.00;;;;;;;;;;5099192;28;20078;-74
2023/03/18 05:13:00;;;;;;;1.77;0.82;;;;;;;;;;5078991;28;20078;-74
2023/03/18 05:15:31;;;;;;;2.92;1.00;;;;;;;;;;5076583;28;20025;-74
2023/03/18 05:17:58;;;;;;;2.72;1.10;;;;;;;;;;5086801;28;20029;-74
2023/03/18 05:20:25;;;;;;;2.13;0.98;;;;;;;;;;5083647;28;20016;-74
2023/03/18 05:22:52;;;;;;;5.38;1.33;;;;;;;;;;5083593;28;20027;-74
2023/03/18 05:25:28;;;;;;;2.63;0.90;;;;;;;;;;5081911;28;20050;-74
2023/03/18 05:27:56;;;;;;;1.33;0.70;;;;;;;;;;5081535;28;20119;-74
2023/03/18 05:30:30;;;;;;;4.57;0.70;;;;;;;;;;5085523;28;20114;-74
2023/03/18 05:32:57;;;;;;;2.90;0.98;;;;;;;;;;5091010;28;20054;-74
2023/03/18 05:35:38;;;;;;;5.97;1.27;;;;;;;;;;5086790;28;20455;-74
2023/03/18 05:38:05;;;;;;;3.53;1.08;;;;;;;;;;5085141;28;20028;-74
2023/03/18 05:40:32;;;;;;;4.03;2.30;;;;;;;;;;5083892;28;20097;-74
2023/03/18 05:43:07;;;;;;;1.48;0.98;;;;;;;;;;5089127;28;20063;-74
2023/03/18 05:45:42;;;;;;;3.05;1.10;;;;;;;;;;5087456;28;20017;-74
2023/03/18 05:48:11;;;;;;;1.95;0.93;;;;;;;;;;5079925;28;20025;-74
2023/03/18 05:50:46;;;;;;;1.88;0.95;;;;;;;;;;5084069;28;20384;-74
2023/03/18 05:53:17;;;;;;;1.70;0.80;;;;;;;;;;5084209;28;20078;-74
2023/03/18 05:55:46;;;;;;;2.20;0.95;;;;;;;;;;5081594;28;20020;-74
2023/03/18 05:58:13;;;;;;;1.35;0.90;;;;;;;;;;5083555;28;20048;-74
2023/03/18 06:00:42;;;;;;;4.18;1.00;;;;;;;;;;5086184;28;20028;-74
2023/03/18 06:03:09;;;;;;;5.35;1.30;;;;;;;;;;5084525;28;20056;-74
2023/03/18 06:05:35;;;;;;;2.00;1.40;;;;;;;;;;5075159;28;20048;-74
2023/03/18 06:08:01;;;;;;;3.88;1.02;;;;;;;;;;5082107;28;20450;-74
2023/03/18 06:10:28;;;;;;;2.20;1.00;;;;;;;;;;5080449;28;20021;-74
2023/03/18 06:12:54;;;;;;;3.72;1.00;;;;;;;;;;5078691;28;20028;-74
2023/03/18 06:15:21;;;;;;;1.88;0.90;;;;;;;;;;5079614;28;20099;-74
2023/03/18 06:17:48;;;;;;;1.48;0.93;;;;;;;;;;5084733;28;20023;-74
2023/03/18 06:20:14;;;;;;;3.35;1.20;;;;;;;;;;5081766;28;20542;-74
2023/03/18 06:22:42;;;;;;;6.78;1.60;;;;;;;;;;5092100;28;20425;-74
2023/03/18 06:25:08;;;;;;;7.70;1.10;;;;;;;;;;5084966;28;20036;-74
2023/03/18 06:27:37;;;;;;;1.90;0.82;;;;;;;;;;5085393;28;20407;-74
2023/03/18 06:30:05;;;;;;;3.67;1.17;;;;;;;;;;5083169;28;20222;-74
2023/03/18 06:32:34;;;;;;;1.58;0.95;;;;;;;;;;5084423;28;20012;-74
2023/03/18 06:35:00;;;;;;;1.92;1.00;;;;;;;;;;5082733;28;20036;-74
2023/03/18 06:37:27;;;;;;;4.90;1.38;;;;;;;;;;5081499;28;20031;-74
2023/03/18 06:39:54;;;;;;;3.03;1.40;;;;;;;;;;5088595;28;20040;-74
2023/03/18 06:42:20;;;;;;;2.67;1.08;;;;;;;;;;5085573;28;20492;-74
2023/03/18 06:44:53;;;;;;;8.90;3.23;;;;;;;;;;5085728;28;20119;-74
2023/03/18 06:47:25;;;;;;;;;;;;;;;;;;5080429;28;20258;-74
2023/03/18 06:49:56;;;;;;;6.57;2.22;;;;;;;;;;5089604;28;19908;-74
2023/03/18 06:52:36;;;;;;;11.13;1.92;;;;;;;;;;5085751;28;20029;-74
2023/03/18 06:55:09;;;;;;;3.35;1.20;;;;;;;;;;5085409;28;20027;-74
2023/03/18 06:57:45;;;;;;;6.38;1.75;;;;;;;;;;5069374;28;20421;-76
2023/03/18 07:00:37;;;;;;;3.20;1.30;;;;;;;;;;5077365;28;20602;-76
2023/03/18 07:03:08;;;;;;;6.25;1.20;;;;;;;;;;5068770;28;20054;-76
2023/03/18 07:05:35;;;;;;;4.95;1.75;;;;;;;;;;5080484;28;20070;-76
2023/03/18 07:08:01;;;;;;;7.43;1.83;;;;;;;;;;5080395;28;20440;-75
2023/03/18 07:10:29;;;;;;;11.05;1.58;;;;;;;;;;5078337;28;20101;-75
2023/03/18 07:13:03;;;;;;;11.82;1.98;;;;;;;;;;5079374;28;20012;-75
2023/03/18 07:15:30;;;;;;;5.38;1.88;;;;;;;;;;5070987;28;20028;-75
2023/03/18 07:17:59;;;;;;;7.78;2.20;;;;;;;;;;5085048;28;20026;-69
2023/03/18 07:20:26;;;;;;;8.57;2.20;;;;;;;;;;5086133;28;20021;-74
2023/03/18 07:22:52;;;;;;;5.30;2.03;;;;;;;;;;5080019;28;20016;-74
2023/03/18 07:25:19;;;;;;;8.00;2.15;;;;;;;;;;5076059;28;20024;-74
2023/03/18 07:27:45;;;;;;;19.25;6.13;;;;;;;;;;5077376;28;20480;-74
2023/03/18 07:30:12;;;;;;;20.25;3.30;;;;;;;;;;5080583;28;20048;-74
2023/03/18 07:32:38;;;;;;;10.77;2.85;;;;;;;;;;5079305;28;20016;-73
2023/03/18 07:35:05;;;;;;;34.78;3.90;;;;;;;;;;5078176;28;20496;-74
2023/03/18 07:37:32;;;;;;;22.77;4.30;;;;;;;;;;5077729;28;20460;-74
2023/03/18 07:39:58;;;;;;;24.25;3.38;;;;;;;;;;5081031;28;20045;-74
2023/03/18 07:42:24;;;;;;;15.88;3.00;;;;;;;;;;5070950;28;20055;-74
2023/03/18 07:44:51;;;;;;;11.23;3.65;;;;;;;;;;5073974;28;20103;-74
2023/03/18 07:47:19;;;;;;;9.85;2.53;;;;;;;;;;5073597;28;20077;-74
2023/03/18 07:49:46;;;;;;;16.23;3.40;;;;;;;;;;5080104;28;20023;-74
2023/03/18 07:52:12;;;;;;;14.02;3.63;;;;;;;;;;5079429;28;20020;-74
2023/03/18 07:54:38;;;;;;;14.15;3.10;;;;;;;;;;5081566;28;20066;-74
2023/03/18 07:57:05;;;;;;;14.45;3.80;;;;;;;;;;5081386;28;20076;-74
2023/03/18 07:59:32;;;;;;;15.32;4.38;;;;;;;;;;5079745;28;20050;-74
2023/03/18 08:01:58;;;;;;;13.02;3.42;;;;;;;;;;5079093;28;20401;-74
2023/03/18 08:04:24;;;;;;;12.80;3.50;;;;;;;;;;5080073;28;20456;-74
2023/03/18 08:06:50;;;;;;;12.63;3.50;;;;;;;;;;5080346;28;20017;-74
2023/03/18 08:09:16;;;;;;;9.63;3.78;;;;;;;;;;5079489;28;21553;-74
2023/03/18 08:11:42;;;;;;;8.88;2.97;;;;;;;;;;5080612;28;20069;-73
2023/03/18 08:14:08;;;;;;;12.07;3.53;;;;;;;;;;5079547;28;20032;-73
2023/03/18 08:16:34;;;;;;;14.30;3.00;;;;;;;;;;5070297;28;20021;-72
2023/03/18 08:19:00;;;;;;;10.18;3.20;;;;;;;;;;5081685;28;20063;-73
2023/03/18 08:21:27;;;;;;;11.90;3.20;;;;;;;;;;5081811;28;20083;-73
2023/03/18 08:23:53;;;;;;;9.73;3.10;;;;;;;;;;5071421;28;20032;-73
2023/03/18 08:26:19;;;;;;;8.38;3.00;;;;;;;;;;5071089;28;20043;-73
2023/03/18 08:28:45;;;;;;;16.92;3.20;;;;;;;;;;5072270;28;20115;-73
2023/03/18 08:31:13;;;;;;;13.75;3.72;;;;;;;;;;5081490;28;20025;-73
2023/03/18 08:33:39;;;;;;;13.07;3.15;;;;;;;;;;5092187;28;20043;-73
2023/03/18 08:36:07;;;;;;;8.65;3.03;;;;;;;;;;5087852;28;20021;-73
2023/03/18 08:38:33;;;;;;;5.07;2.42;;;;;;;;;;5074918;28;20032;-72
2023/03/18 08:41:00;;;;;;;12.68;3.00;;;;;;;;;;5084657;28;20503;-73
2023/03/18 08:43:26;;;;;;;12.40;2.92;;;;;;;;;;5075594;28;20043;-73
2023/03/18 08:45:52;;;;;;;9.57;3.05;;;;;;;;;;5073980;28;20025;-73
2023/03/18 08:48:19;;;;;;;12.38;4.00;;;;;;;;;;5090707;28;20024;-73
2023/03/18 08:50:45;;;;;;;9.48;3.78;;;;;;;;;;5073766;28;20027;-73
2023/03/18 08:53:12;;;;;;;10.95;2.97;;;;;;;;;;5082233;28;20149;-73
2023/03/18 08:55:39;;;;;;;11.88;4.13;;;;;;;;;;5084614;28;20488;-73
2023/03/18 08:58:06;;;;;;;4.93;3.85;;;;;;;;;;5083972;28;20020;-73
2023/03/18 09:00:33;;;;;;;7.80;3.22;;;;;;;;;;5081703;28;20028;-73
2023/03/18 09:03:00;;;;;;;9.48;3.13;;;;;;;;;;5077548;28;20021;-73
2023/03/18 09:05:26;;;;;;;8.25;2.88;;;;;;;;;;5081358;28;20082;-73
2023/03/18 09:07:52;;;;;;;9.93;3.72;;;;;;;;;;5089975;28;20048;-73
2023/03/18 09:10:18;;;;;;;10.77;3.30;;;;;;;;;;5095341;28;20479;-73
2023/03/18 09:12:45;;;;;;;5.60;2.47;;;;;;;;;;5085352;28;20081;-73
2023/03/18 09:15:13;;;;;;;10.40;3.63;;;;;;;;;;5090099;28;20143;-73
2023/03/18 09:17:39;;;;;;;6.30;2.72;;;;;;;;;;5086840;28;20040;-73
2023/03/18 09:20:09;;;;;;;6.13;3.53;;;;;;;;;;5088361;28;20034;-73
2023/03/18 09:22:36;;;;;;;10.13;2.88;;;;;;;;;;5070504;28;20118;-73
2023/03/18 09:25:02;;;;;;;7.68;2.78;;;;;;;;;;5080356;28;20028;-73
2023/03/18 09:27:28;;;;;;;6.55;2.53;;;;;;;;;;5095452;28;20510;-73
2023/03/18 09:29:55;;;;;;;6.47;2.38;;;;;;;;;;5084612;28;20116;-73
2023/03/18 09:32:21;;;;;;;6.65;2.78;;;;;;;;;;5086740;28;20036;-73
2023/03/18 09:34:47;;;;;;;6.07;1.98;;;;;;;;;;5085060;28;20031;-73
2023/03/18 09:37:14;;;;;;;5.75;1.98;;;;;;;;;;5081933;28;20035;-73
2023/03/18 09:39:41;;;;;;;5.20;2.30;;;;;;;;;;5078881;28;20392;-73
2023/03/18 09:42:26;;;;;;;4.63;1.33;;;;;;;;;;5089366;28;20068;-73
2023/03/18 09:44:58;;;;;;;8.57;2.25;;;;;;;;;;5083796;28;20032;-74
2023/03/18 09:47:37;;;;;;;5.40;1.70;;;;;;;;;;5077061;28;20556;-74
2023/03/18 09:50:26;;;;;;;7.13;1.65;;;;;;;;;;5085129;28;20028;-74
2023/03/18 09:52:52;;;;;;;4.43;1.17;;;;;;;;;;5077704;28;20043;-74
2023/03/18 09:55:18;;;;;;;3.42;1.48;;;;;;;;;;5084410;28;20039;-74
2023/03/18 09:57:47;;;;;;;5.72;1.50;;;;;;;;;;5080201;28;20031;-74
2023/03/18 10:00:23;;;;;;;4.18;1.33;;;;;;;;;;5077166;28;20132;-74
2023/03/18 10:02:55;;;;;;;4.20;1.05;;;;;;;;;;5083438;28;20049;-74
2023/03/18 10:05:29;;;;;;;3.92;0.90;;;;;;;;;;5084729;28;20012;-74
2023/03/18 10:07:57;;;;;;;1.58;0.70;;;;;;;;;;5079387;28;20395;-74
2023/03/18 10:10:25;;;;;;;3.88;0.80;;;;;;;;;;5077382;28;20086;-73
2023/03/18 10:12:55;;;;;;;2.60;0.80;;;;;;;;;;5083210;28;20028;-74
2023/03/18 10:15:36;;;;;;;4.03;1.17;;;;;;;;;;5079066;28;20036;-74
2023/03/18 10:18:11;;;;;;;3.22;1.00;;;;;;;;;;5080092;28;20518;-74
2023/03/18 10:20:47;;;;;;;5.47;0.75;;;;;;;;;;5081711;28;20548;-73
2023/03/18 10:23:20;;;;;;;4.70;0.60;;;;;;;;;;5079355;28;20391;-74
2023/03/18 10:25:49;;;;;;;1.50;0.70;;;;;;;;;;5086518;28;21074;-74
2023/03/18 10:28:36;;;;;;;9.30;1.10;;;;;;;;;;5088767;28;20028;-74
2023/03/18 10:31:10;;;;;;;5.55;0.82;;;;;;;;;;5081682;28;20016;-74
2023/03/18 10:33:46;;;;;;;2.55;0.90;;;;;;;;;;5084614;28;20020;-74
2023/03/18 10:36:18;;;;;;;2.78;0.95;;;;;;;;;;5080467;28;20028;-74
2023/03/18 10:38:47;;;;;;;4.80;0.98;;;;;;;;;;5081505;28;20036;-74
2023/03/18 10:41:34;;;;;;;4.43;1.50;;;;;;;;;;5080210;28;20055;-74
2023/03/18 10:44:03;;;;;;;4.03;1.08;;;;;;;;;;5083106;28;20064;-74
2023/03/18 10:46:30;;;;;;;3.75;0.70;;;;;;;;;;5077535;28;20115;-74
2023/03/18 10:49:00;;;;;;;2.58;0.75;;;;;;;;;;5086555;28;20024;-74
2023/03/18 10:51:30;;;;;;;4.32;0.90;;;;;;;;;;5074988;28;20032;-74
2023/03/18 10:54:06;;;;;;;1.88;0.65;;;;;;;;;;5078059;28;20047;-74
2023/03/18 10:56:33;;;;;;;3.47;0.80;;;;;;;;;;5084568;28;20027;-74
2023/03/18 10:59:00;;;;;;;3.17;0.70;;;;;;;;;;5079835;28;20024;-73
2023/03/18 11:01:28;;;;;;;2.88;0.80;;;;;;;;;;5081453;28;20020;-73
2023/03/18 11:04:00;;;;;;;1.45;0.80;;;;;;;;;;5081908;28;20035;-73
2023/03/18 11:06:30;;;;;;;1.52;0.70;;;;;;;;;;5086916;28;20408;-73
2023/03/18 11:09:05;;;;;;;2.83;0.65;;;;;;;;;;5076663;28;20032;-73
2023/03/18 11:11:33;;;;;;;1.52;0.70;;;;;;;;;;5085776;28;20020;-73
2023/03/18 11:14:01;;;;;;;6.47;0.98;;;;;;;;;;5076148;28;20089;-73
2023/03/18 11:16:30;;;;;;;3.67;0.73;;;;;;;;;;5075874;28;20107;-73
2023/03/18 11:18:57;;;;;;;5.47;0.80;;;;;;;;;;5078870;28;20035;-73
2023/03/18 11:21:24;;;;;;;1.65;0.70;;;;;;;;;;5084657;28;20541;-74
2023/03/18 11:24:07;;;;;;;1.38;0.50;;;;;;;;;;5085653;28;20028;-74
2023/03/18 11:26:33;;;;;;;;;;;;;;;;;;5077121;28;20032;-74
2023/03/18 11:29:04;;;;;;;0.70;0.43;;;;;;;;;;5078601;28;20066;-74
2023/03/18 11:31:31;;;;;;;1.90;0.60;;;;;;;;;;5081296;28;20028;-74
2023/03/18 11:33:58;;;;;;;0.95;0.80;;;;;;;;;;5079482;28;20031;-74
2023/03/18 11:36:26;;;;;;;3.60;0.82;;;;;;;;;;5085915;28;20073;-74
2023/03/18 11:39:04;;;;;;;2.58;0.80;;;;;;;;;;5084597;28;20413;-73
2023/03/18 11:41:30;;;;;;;0.88;0.50;;;;;;;;;;5076475;28;20048;-74
2023/03/18 11:44:04;;;;;;;4.85;0.50;;;;;;;;;;5074856;28;20085;-73
2023/03/18 11:46:40;;;;;;;4.18;0.75;;;;;;;;;;5076611;28;20119;-73
2023/03/18 11:49:09;;;;;;;2.50;0.60;;;;;;;;;;5077842;28;20032;-73
2023/03/18 11:51:55;;;;;;;1.70;0.50;;;;;;;;;;5077108;28;20021;-74
2023/03/18 11:54:39;;;;;;;1.92;0.47;;;;;;;;;;4997359;28;20558;-76
2023/03/18 11:57:06;;;;;;;1.55;0.40;;;;;;;;;;4999779;28;20073;-70
2023/03/18 11:59:39;;;;;;;1.95;0.40;;;;;;;;;;4985308;28;20468;-69
2023/03/18 12:02:12;;;;;;;1.75;0.40;;;;;;;;;;4988995;28;20030;-71
2023/03/18 12:04:41;;;;;;;3.90;0.50;;;;;;;;;;5000355;28;20116;-71
2023/03/18 12:07:26;;;;;;;4.10;1.00;;;;;;;;;;5000953;28;20500;-74
2023/03/18 12:09:59;;;;;;;3.92;1.17;;;;;;;;;;5009134;28;20604;-78
2023/03/18 12:12:33;;;;;;;2.50;0.80;;;;;;;;;;4994860;28;20081;-78
2023/03/18 12:14:59;;;;;;;1.92;0.88;;;;;;;;;;4997763;28;20076;-79
2023/03/18 12:17:42;;;;;;;3.05;1.30;;;;;;;;;;4998815;28;20026;-78
2023/03/18 12:20:17;;;;;;;3.88;1.00;;;;;;;;;;5004637;28;20030;-78
2023/03/18 12:22:44;;;;;;;1.88;0.85;;;;;;;;;;5001289;28;20113;-78
2023/03/18 12:25:24;;;;;;;1.10;0.68;;;;;;;;;;5000272;28;20038;-74
2023/03/18 12:27:51;;;;;;;3.65;0.80;;;;;;;;;;4998299;28;20553;-78
2023/03/18 12:30:35;;;;;;;2.35;1.02;;;;;;;;;;4995981;28;20022;-77
2023/03/18 12:33:04;;;;;;;3.65;1.00;;;;;;;;;;5081721;28;20432;-74
2023/03/18 12:35:50;;;;;;;2.35;0.70;;;;;;;;;;5083232;28;20028;-74
2023/03/18 12:38:30;;;;;;;2.05;0.77;;;;;;;;;;5078678;28;20028;-74
2023/03/18 12:40:56;;;;;;;4.65;0.93;;;;;;;;;;5076576;28;20194;-74
2023/03/18 12:43:27;;;;;;;3.17;0.73;;;;;;;;;;5083683;28;20036;-74
2023/03/18 12:45:57;;;;;;;1.85;0.88;;;;;;;;;;5085373;28;20020;-74
2023/03/18 12:48:26;;;;;;;5.72;1.27;;;;;;;;;;5078663;28;20040;-74
2023/03/18 12:51:16;;;;;;;3.13;1.15;;;;;;;;;;5088280;28;20518;-74
2023/03/18 12:53:47;;;;;;;0.88;0.50;;;;;;;;;;5073006;28;20059;-74
2023/03/18 12:56:20;;;;;;;1.83;0.93;;;;;;;;;;5082045;28;20020;-74
2023/03/18 12:58:52;;;;;;;0.88;0.70;;;;;;;;;;5082474;28;20028;-74
2023/03/18 13:01:23;;;;;;;2.25;0.75;;;;;;;;;;5085336;28;20036;-74
2023/03/18 13:03:52;;;;;;;6.07;1.00;;;;;;;;;;5083471;28;20032;-74
2023/03/18 13:06:19;;;;;;;3.03;1.10;;;;;;;;;;5076103;28;20028;-74
2023/03/18 13:08:45;;;;;;;11.88;1.50;;;;;;;;;;5080177;28;20044;-74
2023/03/18 13:11:29;;;;;;;3.80;1.38;;;;;;;;;;5086753;28;20024;-74
2023/03/18 13:13:59;;;;;;;4.30;1.10;;;;;;;;;;5082081;28;20024;-74
2023/03/18 13:16:25;;;;;;;5.75;2.05;;;;;;;;;;5078319;28;20117;-74
2023/03/18 13:18:52;;;;;;;4.68;1.17;;;;;;;;;;5076258;28;20052;-74
2023/03/18 13:21:23;;;;;;;7.82;1.33;;;;;;;;;;5082836;28;20539;-74
2023/03/18 13:24:08;;;;;;;9.27;1.50;;;;;;;;;;5077569;28;20020;-71
2023/03/18 13:26:52;;;;;;;2.35;0.90;;;;;;;;;;5075524;28;20118;-71
2023/03/18 13:29:28;;;;;;;3.75;1.30;;;;;;;;;;5084606;28;20055;-71
2023/03/18 13:31:57;;;;;;;3.55;0.90;;;;;;;;;;5089761;28;20039;-71
2023/03/18 13:34:42;;;;;;;3.33;0.90;;;;;;;;;;5087466;28;20089;-71
2023/03/18 13:37:16;;;;;;;3.17;0.85;;;;;;;;;;5090242;28;20077;-71
2023/03/18 13:39:47;;;;;;;3.00;0.75;;;;;;;;;;5090766;28;20035;-70
2023/03/18 13:42:20;;;;;;;4.85;1.40;;;;;;;;;;5092424;28;20566;-71
2023/03/18 13:45:05;;;;;;;7.32;1.52;;;;;;;;;;5080194;28;20378;-71
2023/03/18 13:47:33;;;;;;;4.00;1.10;;;;;;;;;;5087212;28;20024;-70
2023/03/18 13:50:00;;;;;;;3.67;1.13;;;;;;;;;;5089708;28;20395;-71
2023/03/18 13:52:41;;;;;;;7.97;1.98;;;;;;;;;;5085015;28;20106;-71
2023/03/18 13:55:16;;;;;;;8.38;1.50;;;;;;;;;;5087652;28;20542;-71
2023/03/18 13:58:06;;;;;;;2.72;1.40;;;;;;;;;;5091970;28;20565;-71
2023/03/18 14:00:39;;;;;;;6.30;1.52;;;;;;;;;;5073143;28;20044;-70
2023/03/18 14:03:05;;;;;;;13.68;2.50;;;;;;;;;;5085503;28;20039;-71
2023/03/18 14:05:32;;;;;;;6.25;2.30;;;;;;;;;;5092126;28;20031;-69
